Current | Forecast
Updated: 11:20 PM EEST on August 22, 2017
Observed at Kuusamo, Russia
Temperature 48°F
Humidity 93%
Dew Point 46°F
Wind North at 5 mph
Pressure 29.95 in (Steady)
Conditions Light Rain
Visibility 6.2 miles
UV 0 out of 16
Clouds Overcast (OVC) : 600 ft
Yesterday's Maximum 63°F
Yesterday's Minimum 52°F approx.
Yesterday's Heating Degree Days 8 approx.
Sunrise5:00 AM MSK
Sunset8:56 PM MSK
Moon Rise5:35 AM MSK
Moon Set9:05 PM MSK
Moon PhaseMoon Phase
New Moon
Raw METARMETAR EFKS 222020Z AUTO 35004KT 280V070 9999 -RA OVC006 09/08 Q1014


Monday
. High: 42° F.
Tuesday
. High: 42° F.
Wednesday
. High: 46° F.
Thursday
. High: 55° F.
Friday
. High: 55° F.
Saturday
. High: 55° F.
Sunday
. High: 53° F.
Monday
. High: 50° F.

Units: English | Metric

Find the Weather for any City, State or Zipcode, or Country:

U.S. State List | Severe Weather | Tropical Storms | Ski Conditions
United States | Canada | Central America | South America | Asia | Europe | Australia | Africa | Islands

Weather Underground

© Copyright 2017
The Weather Company, LLC